sensor_id;sensor_type;location;lat;lon;timestamp;pressure;altitude;pressure_sealevel;temperature;humidity
46448;BME280;32145;50.390;30.778;2023-04-03T00:02:11;99279.22;;;5.68;83.10
46448;BME280;32145;50.390;30.778;2023-04-03T00:05:06;99280.91;;;5.69;83.48
46448;BME280;32145;50.390;30.778;2023-04-03T00:08:00;99285.22;;;5.70;83.36
46448;BME280;32145;50.390;30.778;2023-04-03T00:10:54;99285.22;;;5.70;83.40
46448;BME280;32145;50.390;30.778;2023-04-03T00:13:50;99279.03;;;5.70;83.15
46448;BME280;32145;50.390;30.778;2023-04-03T00:16:45;99281.91;;;5.68;83.35
46448;BME280;32145;50.390;30.778;2023-04-03T00:19:39;99282.97;;;5.67;82.60
46448;BME280;32145;50.390;30.778;2023-04-03T00:22:35;99283.19;;;5.65;82.74
46448;BME280;32145;50.390;30.778;2023-04-03T00:25:29;99281.31;;;5.66;82.87
46448;BME280;32145;50.390;30.778;2023-04-03T00:28:23;99278.63;;;5.66;83.47
46448;BME280;32145;50.390;30.778;2023-04-03T00:31:19;99282.97;;;5.67;83.27
46448;BME280;32145;50.390;30.778;2023-04-03T00:34:14;99278.44;;;5.67;83.60
46448;BME280;32145;50.390;30.778;2023-04-03T00:37:08;99284.59;;;5.68;83.20
46448;BME280;32145;50.390;30.778;2023-04-03T00:40:04;99281.91;;;5.68;83.75
46448;BME280;32145;50.390;30.778;2023-04-03T00:42:59;99279.47;;;5.66;83.62
46448;BME280;32145;50.390;30.778;2023-04-03T00:45:54;99278.63;;;5.66;83.11
46448;BME280;32145;50.390;30.778;2023-04-03T00:48:50;99270.56;;;5.66;83.53
46448;BME280;32145;50.390;30.778;2023-04-03T00:51:45;99274.31;;;5.65;83.12
46448;BME280;32145;50.390;30.778;2023-04-03T00:54:40;99266.25;;;5.65;83.16
46448;BME280;32145;50.390;30.778;2023-04-03T00:57:37;99277.81;;;5.65;83.78
46448;BME280;32145;50.390;30.778;2023-04-03T01:00:31;99275.31;;;5.64;83.08
46448;BME280;32145;50.390;30.778;2023-04-03T01:03:25;99268.31;;;5.63;83.10
46448;BME280;32145;50.390;30.778;2023-04-03T01:06:26;99267.25;;;5.64;83.80
46448;BME280;32145;50.390;30.778;2023-04-03T01:09:21;99272.63;;;5.64;83.62
46448;BME280;32145;50.390;30.778;2023-04-03T01:12:19;99273.47;;;5.64;83.64
46448;BME280;32145;50.390;30.778;2023-04-03T01:15:18;99273.47;;;5.64;84.03
46448;BME280;32145;50.390;30.778;2023-04-03T01:18:15;99267.25;;;5.64;83.60
46448;BME280;32145;50.390;30.778;2023-04-03T01:24:39;99268.94;;;5.65;84.16
46448;BME280;32145;50.390;30.778;2023-04-03T01:27:35;99267.25;;;5.64;83.46
46448;BME280;32145;50.390;30.778;2023-04-03T01:30:34;99265.41;;;5.64;83.72
46448;BME280;32145;50.390;30.778;2023-04-03T01:33:34;99263.13;;;5.61;84.31
46448;BME280;32145;50.390;30.778;2023-04-03T01:36:31;99263.97;;;5.62;83.83
46448;BME280;32145;50.390;30.778;2023-04-03T01:39:27;99265.84;;;5.61;83.88
46448;BME280;32145;50.390;30.778;2023-04-03T01:42:24;99267.72;;;5.61;83.80
46448;BME280;32145;50.390;30.778;2023-04-03T01:45:20;99265.03;;;5.61;84.00
46448;BME280;32145;50.390;30.778;2023-04-03T01:48:16;99268.53;;;5.61;83.81
46448;BME280;32145;50.390;30.778;2023-04-03T01:51:14;99268.72;;;5.60;84.06
46448;BME280;32145;50.390;30.778;2023-04-03T01:54:10;99273.09;;;5.61;83.76
46448;BME280;32145;50.390;30.778;2023-04-03T01:57:07;99273.91;;;5.61;84.25
46448;BME280;32145;50.390;30.778;2023-04-03T02:00:04;99267.72;;;5.61;83.67
46448;BME280;32145;50.390;30.778;2023-04-03T02:03:01;99263.97;;;5.62;84.08
46448;BME280;32145;50.390;30.778;2023-04-03T02:05:57;99269.34;;;5.62;84.08
46448;BME280;32145;50.390;30.778;2023-04-03T02:08:55;99269.34;;;5.62;84.24
46448;BME280;32145;50.390;30.778;2023-04-03T02:11:51;99264.19;;;5.60;83.85
46448;BME280;32145;50.390;30.778;2023-04-03T02:14:47;99263.34;;;5.60;84.41
46448;BME280;32145;50.390;30.778;2023-04-03T02:17:44;99268.94;;;5.58;83.82
46448;BME280;32145;50.390;30.778;2023-04-03T02:20:40;99276.00;;;5.59;83.90
46448;BME280;32145;50.390;30.778;2023-04-03T02:23:36;99269.56;;;5.60;84.39
46448;BME280;32145;50.390;30.778;2023-04-03T02:26:34;99274.72;;;5.62;83.50
46448;BME280;32145;50.390;30.778;2023-04-03T02:29:31;99270.41;;;5.61;84.04
46448;BME280;32145;50.390;30.778;2023-04-03T02:32:27;99271.84;;;5.63;83.82
46448;BME280;32145;50.390;30.778;2023-04-03T02:35:24;99273.47;;;5.64;83.85
46448;BME280;32145;50.390;30.778;2023-04-03T02:38:20;99265.63;;;5.63;84.21
46448;BME280;32145;50.390;30.778;2023-04-03T02:41:15;99272.63;;;5.64;83.70
46448;BME280;32145;50.390;30.778;2023-04-03T02:44:11;99269.94;;;5.64;84.20
46448;BME280;32145;50.390;30.778;2023-04-03T02:47:06;99274.31;;;5.65;84.17
46448;BME280;32145;50.390;30.778;2023-04-03T02:50:00;99272.63;;;5.64;83.64
46448;BME280;32145;50.390;30.778;2023-04-03T02:52:54;99279.91;;;5.63;84.16
46448;BME280;32145;50.390;30.778;2023-04-03T02:55:49;99276.38;;;5.63;83.83
46448;BME280;32145;50.390;30.778;2023-04-03T02:58:43;99280.91;;;5.62;83.96
46448;BME280;32145;50.390;30.778;2023-04-03T03:01:39;99276.38;;;5.63;83.95
46448;BME280;32145;50.390;30.778;2023-04-03T03:04:35;99285.50;;;5.62;84.15
46448;BME280;32145;50.390;30.778;2023-04-03T03:07:31;99286.28;;;5.62;83.87
46448;BME280;32145;50.390;30.778;2023-04-03T03:10:28;99275.31;;;5.64;83.91
46448;BME280;32145;50.390;30.778;2023-04-03T03:13:24;99277.22;;;5.63;84.11
46448;BME280;32145;50.390;30.778;2023-04-03T03:16:21;99273.47;;;5.64;84.30
46448;BME280;32145;50.390;30.778;2023-04-03T03:19:17;99277.00;;;5.65;84.25
46448;BME280;32145;50.390;30.778;2023-04-03T03:22:11;99281.31;;;5.66;84.02
46448;BME280;32145;50.390;30.778;2023-04-03T03:25:05;99275.13;;;5.65;83.67
46448;BME280;32145;50.390;30.778;2023-04-03T03:28:00;99270.56;;;5.66;84.22
46448;BME280;32145;50.390;30.778;2023-04-03T03:30:54;99272.63;;;5.71;84.05
46448;BME280;32145;50.390;30.778;2023-04-03T03:33:48;99279.22;;;5.68;83.88
46448;BME280;32145;50.390;30.778;2023-04-03T03:36:44;99277.59;;;5.67;84.35
46448;BME280;32145;50.390;30.778;2023-04-03T03:39:40;99281.13;;;5.67;84.28
46448;BME280;32145;50.390;30.778;2023-04-03T03:42:35;99281.91;;;5.68;84.52
46448;BME280;32145;50.390;30.778;2023-04-03T03:45:29;99281.72;;;5.70;84.38
46448;BME280;32145;50.390;30.778;2023-04-03T03:48:25;99281.91;;;5.68;83.79
46448;BME280;32145;50.390;30.778;2023-04-03T03:51:21;99284.59;;;5.68;84.02
46448;BME280;32145;50.390;30.778;2023-04-03T03:54:19;99285.22;;;5.70;83.99
46448;BME280;32145;50.390;30.778;2023-04-03T03:57:16;99286.50;;;5.67;84.64
46448;BME280;32145;50.390;30.778;2023-04-03T04:00:13;99277.59;;;5.67;84.44
46448;BME280;32145;50.390;30.778;2023-04-03T04:03:09;99285.66;;;5.67;84.17
46448;BME280;32145;50.390;30.778;2023-04-03T04:06:06;99285.66;;;5.67;84.44
46448;BME280;32145;50.390;30.778;2023-04-03T04:09:02;99289.41;;;5.66;84.48
46448;BME280;32145;50.390;30.778;2023-04-03T04:11:59;99285.66;;;5.67;83.88
46448;BME280;32145;50.390;30.778;2023-04-03T04:14:55;99293.72;;;5.67;84.44
46448;BME280;32145;50.390;30.778;2023-04-03T04:17:52;99292.69;;;5.68;84.24
46448;BME280;32145;50.390;30.778;2023-04-03T04:20:48;99300.31;;;5.71;84.52
46448;BME280;32145;50.390;30.778;2023-04-03T04:23:44;99294.94;;;5.71;84.43
46448;BME280;32145;50.390;30.778;2023-04-03T04:26:41;99296.59;;;5.72;84.72
46448;BME280;32145;50.390;30.778;2023-04-03T04:29:38;99293.09;;;5.72;84.73
46448;BME280;32145;50.390;30.778;2023-04-03T04:32:35;99292.03;;;5.73;84.77
46448;BME280;32145;50.390;30.778;2023-04-03T04:35:31;99299.06;;;5.74;84.77
46448;BME280;32145;50.390;30.778;2023-04-03T04:38:28;99295.56;;;5.73;84.08
46448;BME280;32145;50.390;30.778;2023-04-03T04:41:24;99297.22;;;5.74;84.34
46448;BME280;32145;50.390;30.778;2023-04-03T04:44:20;99297.81;;;5.76;84.38
46448;BME280;32145;50.390;30.778;2023-04-03T04:47:18;99301.31;;;5.77;84.95
46448;BME280;32145;50.390;30.778;2023-04-03T04:50:14;99301.13;;;5.78;84.60
46448;BME280;32145;50.390;30.778;2023-04-03T04:53:10;99304.44;;;5.80;85.10
46448;BME280;32145;50.390;30.778;2023-04-03T04:56:07;99309.19;;;5.78;84.90
46448;BME280;32145;50.390;30.778;2023-04-03T04:59:03;99305.44;;;5.79;84.50
46448;BME280;32145;50.390;30.778;2023-04-03T05:01:59;99305.44;;;5.79;84.56
46448;BME280;32145;50.390;30.778;2023-04-03T05:04:57;99304.44;;;5.80;84.92
46448;BME280;32145;50.390;30.778;2023-04-03T05:07:53;99309.34;;;5.84;84.96
46448;BME280;32145;50.390;30.778;2023-04-03T05:10:49;99308.09;;;5.86;84.77
46448;BME280;32145;50.390;30.778;2023-04-03T05:13:46;99310.56;;;5.88;84.20
46448;BME280;32145;50.390;30.778;2023-04-03T05:16:42;99312.25;;;5.89;84.43
46448;BME280;32145;50.390;30.778;2023-04-03T05:19:38;99311.19;;;5.90;84.80
46448;BME280;32145;50.390;30.778;2023-04-03T05:22:36;99315.53;;;5.91;84.30
46448;BME280;32145;50.390;30.778;2023-04-03T05:25:32;99308.06;;;5.93;84.50
46448;BME280;32145;50.390;30.778;2023-04-03T05:28:29;99315.94;;;5.95;84.36
46448;BME280;32145;50.390;30.778;2023-04-03T05:31:25;99318.38;;;5.96;84.51
46448;BME280;32145;50.390;30.778;2023-04-03T05:34:21;99321.69;;;5.98;84.83
46448;BME280;32145;50.390;30.778;2023-04-03T05:37:18;99317.94;;;5.99;84.57
46448;BME280;32145;50.390;30.778;2023-04-03T05:40:16;99316.69;;;6.02;84.28
46448;BME280;32145;50.390;30.778;2023-04-03T05:43:12;99324.56;;;6.03;85.07
46448;BME280;32145;50.390;30.778;2023-04-03T05:46:10;99330.16;;;6.09;84.18
46448;BME280;32145;50.390;30.778;2023-04-03T05:49:04;99322.66;;;6.11;84.35
46448;BME280;32145;50.390;30.778;2023-04-03T05:51:59;99323.28;;;6.13;84.92
46448;BME280;32145;50.390;30.778;2023-04-03T05:54:53;99323.66;;;6.16;84.05
46448;BME280;32145;50.390;30.778;2023-04-03T05:57:49;99329.22;;;6.22;84.81
46448;BME280;32145;50.390;30.778;2023-04-03T06:00:43;99329.63;;;6.25;84.47
46448;BME280;32145;50.390;30.778;2023-04-03T06:03:37;99337.69;;;6.25;84.24
46448;BME280;32145;50.390;30.778;2023-04-03T06:06:46;99335.59;;;6.27;84.42
46448;BME280;32145;50.390;30.778;2023-04-03T06:09:40;99334.78;;;6.27;84.26
46448;BME280;32145;50.390;30.778;2023-04-03T06:12:35;99337.25;;;6.28;84.29
46448;BME280;32145;50.390;30.778;2023-04-03T06:15:30;99345.94;;;6.30;84.89
46448;BME280;32145;50.390;30.778;2023-04-03T06:18:25;99349.84;;;6.35;84.84
46448;BME280;32145;50.390;30.778;2023-04-03T06:21:19;99354.16;;;6.36;83.99
46448;BME280;32145;50.390;30.778;2023-04-03T06:24:15;99356.84;;;6.36;84.00
46448;BME280;32145;50.390;30.778;2023-04-03T06:27:10;99354.78;;;6.38;83.88
46448;BME280;32145;50.390;30.778;2023-04-03T06:30:07;99353.72;;;6.39;84.54
46448;BME280;32145;50.390;30.778;2023-04-03T06:33:05;99357.06;;;6.41;84.11
46448;BME280;32145;50.390;30.778;2023-04-03T06:36:03;99365.72;;;6.43;84.27
46448;BME280;32145;50.390;30.778;2023-04-03T06:38:57;99359.31;;;6.44;84.20
46448;BME280;32145;50.390;30.778;2023-04-03T06:41:51;99355.13;;;6.48;83.91
46448;BME280;32145;50.390;30.778;2023-04-03T06:44:48;99359.47;;;6.49;84.23
46448;BME280;32145;50.390;30.778;2023-04-03T06:47:44;99361.53;;;6.47;83.67
46448;BME280;32145;50.390;30.778;2023-04-03T06:50:42;99367.34;;;6.51;84.11
46448;BME280;32145;50.390;30.778;2023-04-03T06:53:38;99369.81;;;6.52;83.13
46448;BME280;32145;50.390;30.778;2023-04-03T06:56:35;99377.22;;;6.57;83.37
46448;BME280;32145;50.390;30.778;2023-04-03T06:59:31;99368.03;;;6.65;83.85
46448;BME280;32145;50.390;30.778;2023-04-03T07:02:27;99372.75;;;6.69;84.03
46448;BME280;32145;50.390;30.778;2023-04-03T07:05:24;99375.41;;;6.76;83.26
46448;BME280;32145;50.390;30.778;2023-04-03T07:08:20;99377.66;;;6.79;83.56
46448;BME280;32145;50.390;30.778;2023-04-03T07:11:15;99382.81;;;6.81;83.71
46448;BME280;32145;50.390;30.778;2023-04-03T07:14:09;99380.75;;;6.83;83.74
46448;BME280;32145;50.390;30.778;2023-04-03T07:17:03;99376.78;;;6.86;83.25
46448;BME280;32145;50.390;30.778;2023-04-03T07:19:59;99369.53;;;6.86;83.16
46448;BME280;32145;50.390;30.778;2023-04-03T07:22:56;99373.63;;;6.89;83.06
46448;BME280;32145;50.390;30.778;2023-04-03T07:25:54;99377.09;;;6.96;83.34
46448;BME280;32145;50.390;30.778;2023-04-03T07:28:50;99379.31;;;6.99;83.05
46448;BME280;32145;50.390;30.778;2023-04-03T07:31:46;99381.16;;;7.05;82.80
46448;BME280;32145;50.390;30.778;2023-04-03T07:34:43;99376.97;;;7.09;83.25
46448;BME280;32145;50.390;30.778;2023-04-03T07:37:40;99385.19;;;7.15;83.66
46448;BME280;32145;50.390;30.778;2023-04-03T07:40:37;99387.44;;;7.18;82.96
46448;BME280;32145;50.390;30.778;2023-04-03T07:43:34;99388.66;;;7.22;83.29
46448;BME280;32145;50.390;30.778;2023-04-03T07:46:31;99382.81;;;7.25;82.84
46448;BME280;32145;50.390;30.778;2023-04-03T07:49:27;99395.47;;;7.25;82.96
46448;BME280;32145;50.390;30.778;2023-04-03T07:52:24;99390.91;;;7.25;82.88
46448;BME280;32145;50.390;30.778;2023-04-03T07:55:18;99395.25;;;7.26;83.04
46448;BME280;32145;50.390;30.778;2023-04-03T07:58:14;99395.25;;;7.26;83.35
46448;BME280;32145;50.390;30.778;2023-04-03T08:01:10;99400.63;;;7.26;83.21
46448;BME280;32145;50.390;30.778;2023-04-03T08:04:04;99399.00;;;7.25;83.19
46448;BME280;32145;50.390;30.778;2023-04-03T08:06:58;99404.75;;;7.29;83.31
46448;BME280;32145;50.390;30.778;2023-04-03T08:09:53;99396.44;;;7.30;82.86
46448;BME280;32145;50.390;30.778;2023-04-03T08:12:49;99403.47;;;7.31;82.70
46448;BME280;32145;50.390;30.778;2023-04-03T08:15:45;99401.75;;;7.37;82.78
46448;BME280;32145;50.390;30.778;2023-04-03T08:18:43;99404.22;;;7.39;82.98
46448;BME280;32145;50.390;30.778;2023-04-03T08:21:40;99407.16;;;7.37;83.01
46448;BME280;32145;50.390;30.778;2023-04-03T08:24:36;99412.53;;;7.37;83.06
46448;BME280;32145;50.390;30.778;2023-04-03T08:27:32;99412.53;;;7.37;82.85
46448;BME280;32145;50.390;30.778;2023-04-03T08:30:28;99411.31;;;7.40;82.90
46448;BME280;32145;50.390;30.778;2023-04-03T08:33:24;99412.03;;;7.47;82.82
46448;BME280;32145;50.390;30.778;2023-04-03T08:36:22;99414.59;;;7.60;82.65
46448;BME280;32145;50.390;30.778;2023-04-03T08:39:16;99418.84;;;7.68;82.54
46448;BME280;32145;50.390;30.778;2023-04-03T08:42:16;99419.38;;;7.77;82.62
46448;BME280;32145;50.390;30.778;2023-04-03T08:45:16;99424.47;;;7.85;82.75
46448;BME280;32145;50.390;30.778;2023-04-03T08:48:15;99426.84;;;7.94;82.68
46448;BME280;32145;50.390;30.778;2023-04-03T08:51:14;99422.19;;;8.01;82.18
46448;BME280;32145;50.390;30.778;2023-04-03T08:54:22;99424.69;;;8.15;82.32
46448;BME280;32145;50.390;30.778;2023-04-03T08:57:28;99420.66;;;8.24;81.93
46448;BME280;32145;50.390;30.778;2023-04-03T09:00:28;99427.97;;;8.35;81.72
46448;BME280;32145;50.390;30.778;2023-04-03T09:03:23;99426.13;;;8.48;81.39
46448;BME280;32145;50.390;30.778;2023-04-03T09:06:21;99429.41;;;8.50;81.36
46448;BME280;32145;50.390;30.778;2023-04-03T09:09:30;99427.31;;;8.52;81.32
46448;BME280;32145;50.390;30.778;2023-04-03T09:12:36;99432.09;;;8.50;80.95
46448;BME280;32145;50.390;30.778;2023-04-03T09:15:33;99424.94;;;8.44;80.58
46448;BME280;32145;50.390;30.778;2023-04-03T09:18:32;99423.53;;;8.41;80.55
46448;BME280;32145;50.390;30.778;2023-04-03T09:21:36;99431.38;;;8.43;80.80
46448;BME280;32145;50.390;30.778;2023-04-03T09:24:35;99424.56;;;8.40;80.97
46448;BME280;32145;50.390;30.778;2023-04-03T09:27:32;99435.75;;;8.44;81.05
46448;BME280;32145;50.390;30.778;2023-04-03T09:30:29;99431.88;;;8.51;80.94
46448;BME280;32145;50.390;30.778;2023-04-03T09:33:25;99434.66;;;8.63;81.14
46448;BME280;32145;50.390;30.778;2023-04-03T09:36:40;99437.03;;;8.72;80.11
46448;BME280;32145;50.390;30.778;2023-04-03T09:39:50;99436.06;;;8.78;80.26
46448;BME280;32145;50.390;30.778;2023-04-03T09:42:45;99444.19;;;8.78;79.74
46448;BME280;32145;50.390;30.778;2023-04-03T09:45:39;99443.59;;;8.76;79.81
46448;BME280;32145;50.390;30.778;2023-04-03T09:48:34;99442.41;;;8.72;79.87
46448;BME280;32145;50.390;30.778;2023-04-03T09:51:30;99443.72;;;8.69;80.01
46448;BME280;32145;50.390;30.778;2023-04-03T09:54:33;99438.38;;;8.62;79.61
46448;BME280;32145;50.390;30.778;2023-04-03T09:57:33;99446.81;;;8.54;79.72
46448;BME280;32145;50.390;30.778;2023-04-03T10:00:32;99443.53;;;8.52;80.08
46448;BME280;32145;50.390;30.778;2023-04-03T10:03:29;99450.13;;;8.56;80.34
46448;BME280;32145;50.390;30.778;2023-04-03T10:06:31;99443.41;;;8.47;80.09
46448;BME280;32145;50.390;30.778;2023-04-03T10:09:26;99439.97;;;8.40;80.23
46448;BME280;32145;50.390;30.778;2023-04-03T10:12:21;99445.81;;;8.36;80.53
46448;BME280;32145;50.390;30.778;2023-04-03T10:21:23;99453.75;;;8.00;81.03
46448;BME280;32145;50.390;30.778;2023-04-03T10:24:26;99456.09;;;7.97;81.67
46448;BME280;32145;50.390;30.778;2023-04-03T10:27:31;99462.09;;;7.99;81.70
46448;BME280;32145;50.390;30.778;2023-04-03T10:30:35;99467.84;;;8.03;81.69
46448;BME280;32145;50.390;30.778;2023-04-03T10:33:41;99468.22;;;8.06;81.75
46448;BME280;32145;50.390;30.778;2023-04-03T10:36:46;99476.94;;;8.08;82.29
46448;BME280;32145;50.390;30.778;2023-04-03T10:39:48;99474.81;;;8.10;81.77
46448;BME280;32145;50.390;30.778;2023-04-03T10:42:46;99483.88;;;8.16;81.48
46448;BME280;32145;50.390;30.778;2023-04-03T10:45:51;99479.59;;;8.27;81.80
46448;BME280;32145;50.390;30.778;2023-04-03T10:48:59;99488.09;;;8.43;81.74
46448;BME280;32145;50.390;30.778;2023-04-03T10:52:02;99484.81;;;8.59;81.64
46448;BME280;32145;50.390;30.778;2023-04-03T10:55:06;99481.06;;;8.72;81.66
46448;BME280;32145;50.390;30.778;2023-04-03T10:58:06;99482.16;;;8.83;81.41
46448;BME280;32145;50.390;30.778;2023-04-03T11:01:08;99488.88;;;8.93;81.04
46448;BME280;32145;50.390;30.778;2023-04-03T11:04:05;99484.16;;;8.88;81.19
46448;BME280;32145;50.390;30.778;2023-04-03T11:07:06;99490.13;;;8.78;80.79
46448;BME280;32145;50.390;30.778;2023-04-03T11:10:03;99492.72;;;8.73;81.00
46448;BME280;32145;50.390;30.778;2023-04-03T11:13:02;99483.75;;;8.72;81.41
46448;BME280;32145;50.390;30.778;2023-04-03T11:16:02;99493.53;;;8.73;81.65
46448;BME280;32145;50.390;30.778;2023-04-03T11:18:59;99490.69;;;8.68;81.42
46448;BME280;32145;50.390;30.778;2023-04-03T11:22:01;99485.78;;;8.65;81.45
46448;BME280;32145;50.390;30.778;2023-04-03T11:25:03;99497.84;;;8.62;81.40
46448;BME280;32145;50.390;30.778;2023-04-03T11:28:00;99491.25;;;8.58;80.91
46448;BME280;32145;50.390;30.778;2023-04-03T11:31:01;99495.63;;;8.59;80.83
46448;BME280;32145;50.390;30.778;2023-04-03T11:34:08;99491.25;;;8.58;80.98
46448;BME280;32145;50.390;30.778;2023-04-03T11:37:13;99490.66;;;8.56;80.57
46448;BME280;32145;50.390;30.778;2023-04-03T11:40:21;99490.22;;;8.59;81.06
46448;BME280;32145;50.390;30.778;2023-04-03T11:43:24;99496.56;;;8.65;80.57
46448;BME280;32145;50.390;30.778;2023-04-03T11:46:18;99491.66;;;8.74;80.86
46448;BME280;32145;50.390;30.778;2023-04-03T11:53:00;99501.81;;;8.91;80.73
46448;BME280;32145;50.390;30.778;2023-04-03T11:59:21;99502.06;;;9.01;80.75
46448;BME280;32145;50.390;30.778;2023-04-03T12:02:35;99498.28;;;8.90;80.36
46448;BME280;32145;50.390;30.778;2023-04-03T12:05:32;99506.34;;;8.78;80.31
46448;BME280;32145;50.390;30.778;2023-04-03T12:08:29;99509.16;;;8.71;80.91
46448;BME280;32145;50.390;30.778;2023-04-03T12:11:29;99509.16;;;8.71;80.89
46448;BME280;32145;50.390;30.778;2023-04-03T12:14:25;99510.31;;;8.63;81.00
46448;BME280;32145;50.390;30.778;2023-04-03T12:17:25;99512.88;;;8.58;80.80
46448;BME280;32145;50.390;30.778;2023-04-03T12:20:56;99518.88;;;8.60;80.98
46448;BME280;32145;50.390;30.778;2023-04-03T12:24:01;99522.47;;;8.54;81.06
46448;BME280;32145;50.390;30.778;2023-04-03T12:27:09;99521.03;;;8.51;81.02
46448;BME280;32145;50.390;30.778;2023-04-03T12:30:25;99523.72;;;8.51;81.00
46448;BME280;32145;50.390;30.778;2023-04-03T12:33:31;99523.81;;;8.45;81.00
46448;BME280;32145;50.390;30.778;2023-04-03T12:36:39;99522.84;;;8.39;81.41
46448;BME280;32145;50.390;30.778;2023-04-03T12:39:44;99533.75;;;8.32;81.13
46448;BME280;32145;50.390;30.778;2023-04-03T12:43:01;99532.78;;;8.27;81.63
46448;BME280;32145;50.390;30.778;2023-04-03T12:46:03;99538.72;;;8.17;81.64
46448;BME280;32145;50.390;30.778;2023-04-03T12:48:58;99538.41;;;8.06;81.99
46448;BME280;32145;50.390;30.778;2023-04-03T12:51:54;99550.56;;;7.97;81.33
46448;BME280;32145;50.390;30.778;2023-04-03T12:54:49;99546.53;;;7.88;81.28
46448;BME280;32145;50.390;30.778;2023-04-03T12:57:44;99545.84;;;7.73;81.41
46448;BME280;32145;50.390;30.778;2023-04-03T13:00:39;99559.22;;;7.61;81.39
46448;BME280;32145;50.390;30.778;2023-04-03T13:03:38;99560.56;;;7.52;81.43
46448;BME280;32145;50.390;30.778;2023-04-03T13:06:38;99560.84;;;7.44;81.30
46448;BME280;32145;50.390;30.778;2023-04-03T13:09:33;99560.22;;;7.42;81.18
46448;BME280;32145;50.390;30.778;2023-04-03T13:12:27;99563.81;;;7.35;81.25
46448;BME280;32145;50.390;30.778;2023-04-03T13:15:26;99560.94;;;7.30;81.52
46448;BME280;32145;50.390;30.778;2023-04-03T13:18:31;99573.63;;;7.23;81.80
46448;BME280;32145;50.390;30.778;2023-04-03T13:21:30;99578.69;;;7.13;81.55
46448;BME280;32145;50.390;30.778;2023-04-03T13:24:28;99589.56;;;6.99;81.98
46448;BME280;32145;50.390;30.778;2023-04-03T13:27:25;99593.13;;;6.93;81.64
46448;BME280;32145;50.390;30.778;2023-04-03T13:30:25;99596.28;;;6.83;81.50
46448;BME280;32145;50.390;30.778;2023-04-03T13:33:25;99598.56;;;6.79;82.14
46448;BME280;32145;50.390;30.778;2023-04-03T13:36:22;99599.19;;;6.81;82.42
46448;BME280;32145;50.390;30.778;2023-04-03T13:39:23;99603.16;;;6.79;81.86
46448;BME280;32145;50.390;30.778;2023-04-03T13:42:23;99609.19;;;6.74;82.26
46448;BME280;32145;50.390;30.778;2023-04-03T13:45:20;99620.00;;;6.67;82.11
46448;BME280;32145;50.390;30.778;2023-04-03T13:48:18;99625.22;;;6.55;81.96
46448;BME280;32145;50.390;30.778;2023-04-03T13:51:22;99625.06;;;6.43;82.30
46448;BME280;32145;50.390;30.778;2023-04-03T13:54:19;99628.00;;;6.35;81.94
46448;BME280;32145;50.390;30.778;2023-04-03T13:57:16;99635.88;;;6.23;82.07
46448;BME280;32145;50.390;30.778;2023-04-03T14:00:22;99645.00;;;6.15;81.87
46448;BME280;32145;50.390;30.778;2023-04-03T14:03:24;99643.78;;;6.04;82.63
46448;BME280;32145;50.390;30.778;2023-04-03T14:06:19;99650.38;;;5.95;82.50
46448;BME280;32145;50.390;30.778;2023-04-03T14:09:14;99657.84;;;5.93;82.59
46448;BME280;32145;50.390;30.778;2023-04-03T14:12:13;99657.81;;;5.86;82.84
46448;BME280;32145;50.390;30.778;2023-04-03T14:15:18;99654.94;;;5.88;82.62
46448;BME280;32145;50.390;30.778;2023-04-03T14:18:15;99666.75;;;5.80;82.50
46448;BME280;32145;50.390;30.778;2023-04-03T14:21:11;99671.94;;;5.75;82.64
46448;BME280;32145;50.390;30.778;2023-04-03T14:24:05;99674.19;;;5.71;82.90
46448;BME280;32145;50.390;30.778;2023-04-03T14:26:59;99677.28;;;5.68;82.65
46448;BME280;32145;50.390;30.778;2023-04-03T14:29:55;99683.50;;;5.62;82.94
46448;BME280;32145;50.390;30.778;2023-04-03T14:32:51;99684.75;;;5.59;82.81
46448;BME280;32145;50.390;30.778;2023-04-03T14:35:46;99678.13;;;5.55;83.08
46448;BME280;32145;50.390;30.778;2023-04-03T14:38:41;99686.41;;;5.53;82.88
46448;BME280;32145;50.390;30.778;2023-04-03T14:41:36;99674.41;;;5.49;82.69
46448;BME280;32145;50.390;30.778;2023-04-03T14:44:30;99687.19;;;5.47;83.06
46448;BME280;32145;50.390;30.778;2023-04-03T14:47:27;99688.25;;;5.46;82.84
46448;BME280;32145;50.390;30.778;2023-04-03T14:50:25;99693.81;;;5.45;83.04
46448;BME280;32145;50.390;30.778;2023-04-03T14:53:20;99691.34;;;5.43;83.15
46448;BME280;32145;50.390;30.778;2023-04-03T14:56:17;99689.47;;;5.44;82.96
46448;BME280;32145;50.390;30.778;2023-04-03T14:59:12;99698.78;;;5.41;83.21
46448;BME280;32145;50.390;30.778;2023-04-03T15:02:24;99701.47;;;5.41;83.00
46448;BME280;32145;50.390;30.778;2023-04-03T15:05:18;99695.47;;;5.39;83.29
46448;BME280;32145;50.390;30.778;2023-04-03T15:08:21;99704.56;;;5.38;82.95
46448;BME280;32145;50.390;30.778;2023-04-03T15:11:18;99712.41;;;5.33;82.94
46448;BME280;32145;50.390;30.778;2023-04-03T15:14:15;99716.31;;;5.30;82.89
46448;BME280;32145;50.390;30.778;2023-04-03T15:17:15;99723.38;;;5.31;83.24
46448;BME280;32145;50.390;30.778;2023-04-03T15:20:14;99721.06;;;5.21;82.93
46448;BME280;32145;50.390;30.778;2023-04-03T15:23:12;99728.28;;;5.21;83.43
46448;BME280;32145;50.390;30.778;2023-04-03T15:26:08;99724.16;;;5.18;83.22
46448;BME280;32145;50.390;30.778;2023-04-03T15:29:03;99732.59;;;5.08;83.30
46448;BME280;32145;50.390;30.778;2023-04-03T15:31:58;99745.81;;;5.03;82.82
46448;BME280;32145;50.390;30.778;2023-04-03T15:34:53;99743.25;;;4.95;83.06
46448;BME280;32145;50.390;30.778;2023-04-03T15:37:47;99746.19;;;4.93;83.09
46448;BME280;32145;50.390;30.778;2023-04-03T15:40:42;99744.91;;;4.89;83.41
46448;BME280;32145;50.390;30.778;2023-04-03T15:43:38;99747.34;;;4.84;83.08
46448;BME280;32145;50.390;30.778;2023-04-03T15:46:32;99749.44;;;4.82;82.87
46448;BME280;32145;50.390;30.778;2023-04-03T15:49:26;99763.84;;;4.81;83.39
46448;BME280;32145;50.390;30.778;2023-04-03T15:52:20;99747.75;;;4.81;83.14
46448;BME280;32145;50.390;30.778;2023-04-03T15:55:15;99758.25;;;4.75;83.35
46448;BME280;32145;50.390;30.778;2023-04-03T15:58:09;99754.31;;;4.71;82.79